McLane, Pennsylvania
Current Conditions -  °F | °C
As of 2:51 AM on Tuesday 21 Oct 2014 (Local Time) from KERI Reporting Station
Overcast Overcast  
Wind Chill: 54°   Ceiling: 2200
Heat Index: 54°   Visibility: 7mi
Dew Point: 48°   Wind: 6mph
Humidity: 80%   Direction: 340°NNW
Pressure: 29.81"   Gusts: NA
Location:  41.9793°N, 80.1405°W
Report Text: KERI 210651Z AUTO 34005KT 7SM SCT015 OVC022 12/09 A2981 RMK AO2 RAE0553 SLP095 P0000 T01220089 $
Loading
Personal Weather Stations






























Interactive Weather Map
Tropical Storm Tracking
New forecast layout! Learn more

10-Day Weather Forecast

Advertisements
Track Severe Weather on mobile